sensor_id;sensor_type;location;lat;lon;timestamp;temperature;humidity
5274;DHT22;56254;50.956;7.010;2022-07-23T00:00:17;21.30;91.20
5274;DHT22;56254;50.956;7.010;2022-07-23T00:02:43;21.30;91.70
5274;DHT22;56254;50.956;7.010;2022-07-23T00:05:09;21.40;91.90
5274;DHT22;56254;50.956;7.010;2022-07-23T00:07:35;21.40;91.70
5274;DHT22;56254;50.956;7.010;2022-07-23T00:10:01;21.40;92.20
5274;DHT22;56254;50.956;7.010;2022-07-23T00:12:27;21.30;92.90
5274;DHT22;56254;50.956;7.010;2022-07-23T00:14:52;21.30;92.70
5274;DHT22;56254;50.956;7.010;2022-07-23T00:17:18;21.30;92.90
5274;DHT22;56254;50.956;7.010;2022-07-23T00:19:44;21.20;92.40
5274;DHT22;56254;50.956;7.010;2022-07-23T00:22:10;21.30;92.30
5274;DHT22;56254;50.956;7.010;2022-07-23T00:24:35;21.20;92.70
5274;DHT22;56254;50.956;7.010;2022-07-23T00:27:01;21.20;92.50
5274;DHT22;56254;50.956;7.010;2022-07-23T00:29:27;21.20;93.40
5274;DHT22;56254;50.956;7.010;2022-07-23T00:31:52;21.20;94.10
5274;DHT22;56254;50.956;7.010;2022-07-23T00:34:18;21.20;96.40
5274;DHT22;56254;50.956;7.010;2022-07-23T00:36:45;21.20;97.80
5274;DHT22;56254;50.956;7.010;2022-07-23T00:39:10;21.00;99.20
5274;DHT22;56254;50.956;7.010;2022-07-23T00:41:36;20.80;99.90
5274;DHT22;56254;50.956;7.010;2022-07-23T00:44:37;20.80;99.90
5274;DHT22;56254;50.956;7.010;2022-07-23T00:47:03;20.70;99.90
5274;DHT22;56254;50.956;7.010;2022-07-23T00:49:31;20.70;99.90
5274;DHT22;56254;50.956;7.010;2022-07-23T00:51:58;20.70;99.90
5274;DHT22;56254;50.956;7.010;2022-07-23T00:54:27;20.80;99.90
5274;DHT22;56254;50.956;7.010;2022-07-23T00:56:53;20.80;99.90
5274;DHT22;56254;50.956;7.010;2022-07-23T00:59:19;20.80;99.90
5274;DHT22;56254;50.956;7.010;2022-07-23T01:01:45;20.70;99.90
5274;DHT22;56254;50.956;7.010;2022-07-23T01:04:13;20.80;99.90
5274;DHT22;56254;50.956;7.010;2022-07-23T01:06:40;20.80;99.90
5274;DHT22;56254;50.956;7.010;2022-07-23T01:09:08;20.80;99.90
5274;DHT22;56254;50.956;7.010;2022-07-23T01:11:35;20.80;99.90
5274;DHT22;56254;50.956;7.010;2022-07-23T01:14:18;20.80;99.90
5274;DHT22;56254;50.956;7.010;2022-07-23T01:16:46;20.80;99.90
5274;DHT22;56254;50.956;7.010;2022-07-23T01:19:12;20.60;99.90
5274;DHT22;56254;50.956;7.010;2022-07-23T01:21:44;20.60;99.90
5274;DHT22;56254;50.956;7.010;2022-07-23T01:24:11;20.50;99.90
5274;DHT22;56254;50.956;7.010;2022-07-23T01:26:38;20.30;99.90
5274;DHT22;56254;50.956;7.010;2022-07-23T01:29:04;20.30;99.90
5274;DHT22;56254;50.956;7.010;2022-07-23T01:31:31;20.20;99.90
5274;DHT22;56254;50.956;7.010;2022-07-23T01:33:57;20.20;99.90
5274;DHT22;56254;50.956;7.010;2022-07-23T01:36:23;20.00;99.90
5274;DHT22;56254;50.956;7.010;2022-07-23T01:38:49;20.00;99.90
5274;DHT22;56254;50.956;7.010;2022-07-23T01:41:16;19.90;99.90
5274;DHT22;56254;50.956;7.010;2022-07-23T01:43:42;20.00;99.90
5274;DHT22;56254;50.956;7.010;2022-07-23T01:46:08;20.10;99.90
5274;DHT22;56254;50.956;7.010;2022-07-23T01:48:35;20.10;99.90
5274;DHT22;56254;50.956;7.010;2022-07-23T01:51:01;20.10;99.90
5274;DHT22;56254;50.956;7.010;2022-07-23T01:53:27;20.10;99.90
5274;DHT22;56254;50.956;7.010;2022-07-23T01:55:52;20.10;99.90
5274;DHT22;56254;50.956;7.010;2022-07-23T01:58:18;20.10;99.90
5274;DHT22;56254;50.956;7.010;2022-07-23T02:00:44;20.10;99.90
5274;DHT22;56254;50.956;7.010;2022-07-23T02:03:09;20.00;99.90
5274;DHT22;56254;50.956;7.010;2022-07-23T02:05:35;20.00;99.90
5274;DHT22;56254;50.956;7.010;2022-07-23T02:08:01;20.00;99.90
5274;DHT22;56254;50.956;7.010;2022-07-23T02:10:28;20.00;99.90
5274;DHT22;56254;50.956;7.010;2022-07-23T02:12:54;20.00;99.90
5274;DHT22;56254;50.956;7.010;2022-07-23T02:15:20;19.90;99.90
5274;DHT22;56254;50.956;7.010;2022-07-23T02:17:45;19.90;99.90
5274;DHT22;56254;50.956;7.010;2022-07-23T02:20:11;19.90;99.90
5274;DHT22;56254;50.956;7.010;2022-07-23T02:22:37;19.90;99.90
5274;DHT22;56254;50.956;7.010;2022-07-23T02:25:05;19.80;99.90
5274;DHT22;56254;50.956;7.010;2022-07-23T02:27:31;19.70;99.90
5274;DHT22;56254;50.956;7.010;2022-07-23T02:29:57;19.80;99.90
5274;DHT22;56254;50.956;7.010;2022-07-23T02:32:23;19.90;99.90
5274;DHT22;56254;50.956;7.010;2022-07-23T02:34:50;19.80;99.90
5274;DHT22;56254;50.956;7.010;2022-07-23T02:37:16;19.70;99.90
5274;DHT22;56254;50.956;7.010;2022-07-23T02:39:42;19.70;99.90
5274;DHT22;56254;50.956;7.010;2022-07-23T02:42:08;19.70;99.90
5274;DHT22;56254;50.956;7.010;2022-07-23T02:44:34;19.70;99.90
5274;DHT22;56254;50.956;7.010;2022-07-23T02:47:00;19.70;99.90
5274;DHT22;56254;50.956;7.010;2022-07-23T02:49:25;19.80;99.90
5274;DHT22;56254;50.956;7.010;2022-07-23T02:51:52;19.80;99.90
5274;DHT22;56254;50.956;7.010;2022-07-23T02:54:18;19.70;99.90
5274;DHT22;56254;50.956;7.010;2022-07-23T02:56:44;19.70;99.90
5274;DHT22;56254;50.956;7.010;2022-07-23T02:59:10;19.70;99.90
5274;DHT22;56254;50.956;7.010;2022-07-23T03:01:36;19.70;99.90
5274;DHT22;56254;50.956;7.010;2022-07-23T03:04:02;19.60;99.90
5274;DHT22;56254;50.956;7.010;2022-07-23T03:06:27;19.60;99.90
5274;DHT22;56254;50.956;7.010;2022-07-23T03:08:53;19.60;99.90
5274;DHT22;56254;50.956;7.010;2022-07-23T03:11:19;19.50;99.90
5274;DHT22;56254;50.956;7.010;2022-07-23T03:13:45;19.50;99.90
5274;DHT22;56254;50.956;7.010;2022-07-23T03:16:10;19.40;99.90
5274;DHT22;56254;50.956;7.010;2022-07-23T03:18:42;19.40;99.90
5274;DHT22;56254;50.956;7.010;2022-07-23T03:21:08;19.30;99.90
5274;DHT22;56254;50.956;7.010;2022-07-23T03:23:34;19.30;99.90
5274;DHT22;56254;50.956;7.010;2022-07-23T03:25:59;19.40;99.90
5274;DHT22;56254;50.956;7.010;2022-07-23T03:28:26;19.30;99.90
5274;DHT22;56254;50.956;7.010;2022-07-23T03:30:52;19.20;99.90
5274;DHT22;56254;50.956;7.010;2022-07-23T03:33:18;19.20;99.90
5274;DHT22;56254;50.956;7.010;2022-07-23T03:35:45;19.20;99.90
5274;DHT22;56254;50.956;7.010;2022-07-23T03:38:11;19.20;99.90
5274;DHT22;56254;50.956;7.010;2022-07-23T03:40:37;19.10;99.90
5274;DHT22;56254;50.956;7.010;2022-07-23T03:43:03;19.20;99.90
5274;DHT22;56254;50.956;7.010;2022-07-23T03:45:30;19.00;99.90
5274;DHT22;56254;50.956;7.010;2022-07-23T03:47:56;19.00;99.90
5274;DHT22;56254;50.956;7.010;2022-07-23T03:50:23;19.10;99.90
5274;DHT22;56254;50.956;7.010;2022-07-23T03:52:49;19.00;99.90
5274;DHT22;56254;50.956;7.010;2022-07-23T03:55:15;19.00;99.90
5274;DHT22;56254;50.956;7.010;2022-07-23T03:57:41;18.90;99.90
5274;DHT22;56254;50.956;7.010;2022-07-23T04:00:08;19.00;99.90
5274;DHT22;56254;50.956;7.010;2022-07-23T04:02:35;19.00;99.90
5274;DHT22;56254;50.956;7.010;2022-07-23T04:05:01;19.10;99.90
5274;DHT22;56254;50.956;7.010;2022-07-23T04:07:27;19.10;99.90
5274;DHT22;56254;50.956;7.010;2022-07-23T04:09:53;19.20;99.90
5274;DHT22;56254;50.956;7.010;2022-07-23T04:12:18;19.20;99.90
5274;DHT22;56254;50.956;7.010;2022-07-23T04:14:44;19.20;99.90
5274;DHT22;56254;50.956;7.010;2022-07-23T04:17:11;19.10;99.90
5274;DHT22;56254;50.956;7.010;2022-07-23T04:19:37;19.20;99.90
5274;DHT22;56254;50.956;7.010;2022-07-23T04:22:05;19.20;99.90
5274;DHT22;56254;50.956;7.010;2022-07-23T04:24:32;19.20;99.90
5274;DHT22;56254;50.956;7.010;2022-07-23T04:26:57;19.20;99.90
5274;DHT22;56254;50.956;7.010;2022-07-23T04:29:23;19.20;99.90
5274;DHT22;56254;50.956;7.010;2022-07-23T04:31:49;19.30;99.90
5274;DHT22;56254;50.956;7.010;2022-07-23T04:34:16;19.30;99.90
5274;DHT22;56254;50.956;7.010;2022-07-23T04:36:42;19.30;99.90
5274;DHT22;56254;50.956;7.010;2022-07-23T04:39:08;19.40;99.90
5274;DHT22;56254;50.956;7.010;2022-07-23T04:41:34;19.40;99.90
5274;DHT22;56254;50.956;7.010;2022-07-23T04:44:00;19.30;99.90
5274;DHT22;56254;50.956;7.010;2022-07-23T04:46:26;19.40;99.90
5274;DHT22;56254;50.956;7.010;2022-07-23T04:48:53;19.50;99.90
5274;DHT22;56254;50.956;7.010;2022-07-23T04:51:18;19.40;99.90
5274;DHT22;56254;50.956;7.010;2022-07-23T04:53:44;19.50;99.90
5274;DHT22;56254;50.956;7.010;2022-07-23T04:56:10;19.60;99.90
5274;DHT22;56254;50.956;7.010;2022-07-23T04:58:36;19.70;99.90
5274;DHT22;56254;50.956;7.010;2022-07-23T05:01:02;19.60;99.90
5274;DHT22;56254;50.956;7.010;2022-07-23T05:03:27;19.70;99.90
5274;DHT22;56254;50.956;7.010;2022-07-23T05:05:53;19.60;99.90
5274;DHT22;56254;50.956;7.010;2022-07-23T05:08:19;19.80;99.90
5274;DHT22;56254;50.956;7.010;2022-07-23T05:10:44;19.80;99.90
5274;DHT22;56254;50.956;7.010;2022-07-23T05:13:10;19.90;99.90
5274;DHT22;56254;50.956;7.010;2022-07-23T05:15:36;20.00;99.90
5274;DHT22;56254;50.956;7.010;2022-07-23T05:18:01;20.10;99.90
5274;DHT22;56254;50.956;7.010;2022-07-23T05:20:27;20.10;99.90
5274;DHT22;56254;50.956;7.010;2022-07-23T05:22:53;20.20;99.90
5274;DHT22;56254;50.956;7.010;2022-07-23T05:25:19;20.50;99.90
5274;DHT22;56254;50.956;7.010;2022-07-23T05:27:45;20.60;99.90
5274;DHT22;56254;50.956;7.010;2022-07-23T05:30:11;20.60;99.90
5274;DHT22;56254;50.956;7.010;2022-07-23T05:32:36;20.50;99.90
5274;DHT22;56254;50.956;7.010;2022-07-23T05:35:06;20.30;99.90
5274;DHT22;56254;50.956;7.010;2022-07-23T05:37:32;20.30;99.90
5274;DHT22;56254;50.956;7.010;2022-07-23T05:40:06;20.40;99.90
5274;DHT22;56254;50.956;7.010;2022-07-23T05:42:37;20.30;99.90
5274;DHT22;56254;50.956;7.010;2022-07-23T05:45:03;20.30;99.90
5274;DHT22;56254;50.956;7.010;2022-07-23T05:47:48;20.40;99.90
5274;DHT22;56254;50.956;7.010;2022-07-23T05:50:15;20.50;99.90
5274;DHT22;56254;50.956;7.010;2022-07-23T05:52:42;20.50;99.90
5274;DHT22;56254;50.956;7.010;2022-07-23T05:55:08;20.50;99.90
5274;DHT22;56254;50.956;7.010;2022-07-23T05:57:34;20.60;99.90
5274;DHT22;56254;50.956;7.010;2022-07-23T06:00:00;20.70;99.90
5274;DHT22;56254;50.956;7.010;2022-07-23T06:02:28;20.90;99.90
5274;DHT22;56254;50.956;7.010;2022-07-23T06:04:53;21.00;99.90
5274;DHT22;56254;50.956;7.010;2022-07-23T06:07:19;21.30;99.90
5274;DHT22;56254;50.956;7.010;2022-07-23T06:09:45;21.30;99.90
5274;DHT22;56254;50.956;7.010;2022-07-23T06:12:12;21.60;99.90
5274;DHT22;56254;50.956;7.010;2022-07-23T06:14:38;21.80;99.90
5274;DHT22;56254;50.956;7.010;2022-07-23T06:17:05;22.00;99.90
5274;DHT22;56254;50.956;7.010;2022-07-23T06:19:30;22.10;99.90
5274;DHT22;56254;50.956;7.010;2022-07-23T06:21:56;21.90;99.90
5274;DHT22;56254;50.956;7.010;2022-07-23T06:24:22;22.00;99.90
5274;DHT22;56254;50.956;7.010;2022-07-23T06:26:47;22.00;99.90
5274;DHT22;56254;50.956;7.010;2022-07-23T06:29:13;22.10;99.90
5274;DHT22;56254;50.956;7.010;2022-07-23T06:31:40;22.00;99.90
5274;DHT22;56254;50.956;7.010;2022-07-23T06:34:06;22.10;99.90
5274;DHT22;56254;50.956;7.010;2022-07-23T06:36:32;22.20;99.30
5274;DHT22;56254;50.956;7.010;2022-07-23T06:38:58;22.60;99.90
5274;DHT22;56254;50.956;7.010;2022-07-23T06:41:23;24.90;89.70
5274;DHT22;56254;50.956;7.010;2022-07-23T06:43:49;26.40;80.30
5274;DHT22;56254;50.956;7.010;2022-07-23T06:46:15;27.80;75.10
5274;DHT22;56254;50.956;7.010;2022-07-23T06:48:41;29.30;69.00
5274;DHT22;56254;50.956;7.010;2022-07-23T06:51:07;30.50;65.20
5274;DHT22;56254;50.956;7.010;2022-07-23T06:53:32;31.50;63.50
5274;DHT22;56254;50.956;7.010;2022-07-23T06:55:58;32.20;59.80
5274;DHT22;56254;50.956;7.010;2022-07-23T06:58:23;32.70;59.50
5274;DHT22;56254;50.956;7.010;2022-07-23T07:00:49;33.40;56.80
5274;DHT22;56254;50.956;7.010;2022-07-23T07:03:19;33.30;55.40
5274;DHT22;56254;50.956;7.010;2022-07-23T07:05:45;33.60;55.20
5274;DHT22;56254;50.956;7.010;2022-07-23T07:08:11;34.00;54.70
5274;DHT22;56254;50.956;7.010;2022-07-23T07:10:37;34.10;54.00
5274;DHT22;56254;50.956;7.010;2022-07-23T07:13:02;34.70;51.20
5274;DHT22;56254;50.956;7.010;2022-07-23T07:15:41;34.90;50.90
5274;DHT22;56254;50.956;7.010;2022-07-23T07:18:07;33.30;52.10
5274;DHT22;56254;50.956;7.010;2022-07-23T07:20:33;30.90;57.20
5274;DHT22;56254;50.956;7.010;2022-07-23T07:23:02;29.10;61.80
5274;DHT22;56254;50.956;7.010;2022-07-23T07:25:28;29.70;62.10
5274;DHT22;56254;50.956;7.010;2022-07-23T07:27:54;31.30;59.10
5274;DHT22;56254;50.956;7.010;2022-07-23T07:30:19;31.50;58.20
5274;DHT22;56254;50.956;7.010;2022-07-23T07:32:45;30.70;59.60
5274;DHT22;56254;50.956;7.010;2022-07-23T07:35:11;30.20;59.20
5274;DHT22;56254;50.956;7.010;2022-07-23T07:37:37;29.00;63.00
5274;DHT22;56254;50.956;7.010;2022-07-23T07:40:06;28.90;63.90
5274;DHT22;56254;50.956;7.010;2022-07-23T07:42:32;28.30;65.40
5274;DHT22;56254;50.956;7.010;2022-07-23T07:44:58;27.90;66.40
5274;DHT22;56254;50.956;7.010;2022-07-23T07:47:24;27.20;69.00
5274;DHT22;56254;50.956;7.010;2022-07-23T07:49:52;27.00;70.00
5274;DHT22;56254;50.956;7.010;2022-07-23T07:52:18;27.10;68.80
5274;DHT22;56254;50.956;7.010;2022-07-23T07:54:44;27.10;69.40
5274;DHT22;56254;50.956;7.010;2022-07-23T07:57:09;28.40;67.50
5274;DHT22;56254;50.956;7.010;2022-07-23T07:59:36;29.10;63.70
5274;DHT22;56254;50.956;7.010;2022-07-23T08:02:02;29.40;62.50
5274;DHT22;56254;50.956;7.010;2022-07-23T08:04:27;28.50;62.80
5274;DHT22;56254;50.956;7.010;2022-07-23T08:06:53;27.20;66.90
5274;DHT22;56254;50.956;7.010;2022-07-23T08:09:20;26.50;70.00
5274;DHT22;56254;50.956;7.010;2022-07-23T08:11:46;26.20;72.70
5274;DHT22;56254;50.956;7.010;2022-07-23T08:14:13;25.80;71.90
5274;DHT22;56254;50.956;7.010;2022-07-23T08:16:39;25.70;74.20
5274;DHT22;56254;50.956;7.010;2022-07-23T08:19:05;26.00;73.10
5274;DHT22;56254;50.956;7.010;2022-07-23T08:21:31;26.20;70.30
5274;DHT22;56254;50.956;7.010;2022-07-23T08:23:56;26.10;72.30
5274;DHT22;56254;50.956;7.010;2022-07-23T08:26:22;26.00;72.60
5274;DHT22;56254;50.956;7.010;2022-07-23T08:28:49;26.00;73.50
5274;DHT22;56254;50.956;7.010;2022-07-23T08:31:14;25.90;72.80
5274;DHT22;56254;50.956;7.010;2022-07-23T08:33:41;25.90;73.00
5274;DHT22;56254;50.956;7.010;2022-07-23T08:36:08;25.90;71.60
5274;DHT22;56254;50.956;7.010;2022-07-23T08:38:34;25.70;73.10
5274;DHT22;56254;50.956;7.010;2022-07-23T08:41:02;25.50;74.20
5274;DHT22;56254;50.956;7.010;2022-07-23T08:43:30;25.10;74.10
5274;DHT22;56254;50.956;7.010;2022-07-23T08:45:59;25.40;74.80
5274;DHT22;56254;50.956;7.010;2022-07-23T08:48:28;25.60;72.20
5274;DHT22;56254;50.956;7.010;2022-07-23T08:50:57;25.60;72.00
5274;DHT22;56254;50.956;7.010;2022-07-23T08:53:24;25.30;72.30
5274;DHT22;56254;50.956;7.010;2022-07-23T08:56:04;25.20;72.50
5274;DHT22;56254;50.956;7.010;2022-07-23T08:58:31;25.30;73.40
5274;DHT22;56254;50.956;7.010;2022-07-23T09:00:57;25.50;74.40
5274;DHT22;56254;50.956;7.010;2022-07-23T09:03:26;25.80;72.00
5274;DHT22;56254;50.956;7.010;2022-07-23T09:05:53;26.10;71.40
5274;DHT22;56254;50.956;7.010;2022-07-23T09:08:25;25.90;70.00
5274;DHT22;56254;50.956;7.010;2022-07-23T09:10:57;25.80;69.50
5274;DHT22;56254;50.956;7.010;2022-07-23T09:13:30;25.50;71.00
5274;DHT22;56254;50.956;7.010;2022-07-23T09:15:59;25.50;70.80
5274;DHT22;56254;50.956;7.010;2022-07-23T09:18:51;25.70;70.00
5274;DHT22;56254;50.956;7.010;2022-07-23T09:21:24;25.90;70.10
5274;DHT22;56254;50.956;7.010;2022-07-23T09:24:08;25.90;70.40
5274;DHT22;56254;50.956;7.010;2022-07-23T09:26:41;25.80;69.10
5274;DHT22;56254;50.956;7.010;2022-07-23T09:29:08;25.80;68.50
5274;DHT22;56254;50.956;7.010;2022-07-23T09:31:50;25.80;69.60
5274;DHT22;56254;50.956;7.010;2022-07-23T09:34:23;25.70;69.90
5274;DHT22;56254;50.956;7.010;2022-07-23T09:36:55;25.80;69.50
5274;DHT22;56254;50.956;7.010;2022-07-23T09:39:34;25.60;70.20
5274;DHT22;56254;50.956;7.010;2022-07-23T09:44:43;25.70;69.60
5274;DHT22;56254;50.956;7.010;2022-07-23T09:47:09;25.60;69.20
5274;DHT22;56254;50.956;7.010;2022-07-23T09:49:34;25.60;70.10
5274;DHT22;56254;50.956;7.010;2022-07-23T09:52:01;25.70;69.20
5274;DHT22;56254;50.956;7.010;2022-07-23T09:54:34;25.90;68.30
5274;DHT22;56254;50.956;7.010;2022-07-23T09:57:12;25.90;68.40
5274;DHT22;56254;50.956;7.010;2022-07-23T09:59:43;25.70;69.00
5274;DHT22;56254;50.956;7.010;2022-07-23T10:02:12;25.70;68.10
5274;DHT22;56254;50.956;7.010;2022-07-23T10:04:39;25.80;69.20
5274;DHT22;56254;50.956;7.010;2022-07-23T10:07:07;26.00;69.00
5274;DHT22;56254;50.956;7.010;2022-07-23T10:09:36;25.80;69.90
5274;DHT22;56254;50.956;7.010;2022-07-23T10:12:04;25.90;69.40
5274;DHT22;56254;50.956;7.010;2022-07-23T10:14:34;26.00;68.50
5274;DHT22;56254;50.956;7.010;2022-07-23T10:17:03;25.90;67.90
5274;DHT22;56254;50.956;7.010;2022-07-23T10:19:39;26.20;66.70
5274;DHT22;56254;50.956;7.010;2022-07-23T10:22:12;25.90;67.10
5274;DHT22;56254;50.956;7.010;2022-07-23T10:27:44;26.00;67.70
5274;DHT22;56254;50.956;7.010;2022-07-23T10:32:58;26.30;65.90
5274;DHT22;56254;50.956;7.010;2022-07-23T10:35:44;26.40;62.10
5274;DHT22;56254;50.956;7.010;2022-07-23T10:38:19;26.20;64.30
5274;DHT22;56254;50.956;7.010;2022-07-23T10:41:00;26.30;65.30
5274;DHT22;56254;50.956;7.010;2022-07-23T10:43:26;25.90;62.30
5274;DHT22;56254;50.956;7.010;2022-07-23T10:45:54;25.80;63.00
5274;DHT22;56254;50.956;7.010;2022-07-23T10:48:25;26.10;62.80
5274;DHT22;56254;50.956;7.010;2022-07-23T10:51:11;26.40;61.10
5274;DHT22;56254;50.956;7.010;2022-07-23T10:53:55;26.50;60.40
5274;DHT22;56254;50.956;7.010;2022-07-23T10:59:24;26.60;58.90
5274;DHT22;56254;50.956;7.010;2022-07-23T11:01:50;26.60;59.70
5274;DHT22;56254;50.956;7.010;2022-07-23T11:04:15;26.70;59.80
5274;DHT22;56254;50.956;7.010;2022-07-23T11:09:38;26.80;59.40
5274;DHT22;56254;50.956;7.010;2022-07-23T11:15:14;26.80;58.80
5274;DHT22;56254;50.956;7.010;2022-07-23T11:25:11;27.00;57.60
5274;DHT22;56254;50.956;7.010;2022-07-23T11:27:46;27.30;57.50
5274;DHT22;56254;50.956;7.010;2022-07-23T11:33:15;27.10;56.80
5274;DHT22;56254;50.956;7.010;2022-07-23T11:35:49;27.30;55.80
5274;DHT22;56254;50.956;7.010;2022-07-23T11:38:24;27.10;56.30
5274;DHT22;56254;50.956;7.010;2022-07-23T11:40:53;27.30;55.90
5274;DHT22;56254;50.956;7.010;2022-07-23T11:43:20;27.30;56.20
5274;DHT22;56254;50.956;7.010;2022-07-23T11:45:48;27.50;56.10
5274;DHT22;56254;50.956;7.010;2022-07-23T11:50:43;27.60;55.00
5274;DHT22;56254;50.956;7.010;2022-07-23T11:53:09;27.70;53.90
5274;DHT22;56254;50.956;7.010;2022-07-23T11:55:34;27.70;55.70
5274;DHT22;56254;50.956;7.010;2022-07-23T11:58:00;27.80;55.00
5274;DHT22;56254;50.956;7.010;2022-07-23T12:00:30;27.80;54.30
5274;DHT22;56254;50.956;7.010;2022-07-23T12:02:58;27.80;54.80
5274;DHT22;56254;50.956;7.010;2022-07-23T12:05:30;27.80;53.40
5274;DHT22;56254;50.956;7.010;2022-07-23T12:07:57;27.60;54.70
5274;DHT22;56254;50.956;7.010;2022-07-23T12:10:29;27.80;55.10
5274;DHT22;56254;50.956;7.010;2022-07-23T12:13:00;28.10;54.20
5274;DHT22;56254;50.956;7.010;2022-07-23T12:15:34;28.20;53.00
5274;DHT22;56254;50.956;7.010;2022-07-23T12:18:03;28.20;52.90
5274;DHT22;56254;50.956;7.010;2022-07-23T12:20:41;28.20;52.10
5274;DHT22;56254;50.956;7.010;2022-07-23T12:23:10;28.10;52.40
5274;DHT22;56254;50.956;7.010;2022-07-23T12:25:42;28.20;53.20
5274;DHT22;56254;50.956;7.010;2022-07-23T12:28:10;28.10;54.50
5274;DHT22;56254;50.956;7.010;2022-07-23T12:33:15;28.20;53.50
5274;DHT22;56254;50.956;7.010;2022-07-23T12:35:47;28.30;52.50
5274;DHT22;56254;50.956;7.010;2022-07-23T12:38:21;27.90;52.30
5274;DHT22;56254;50.956;7.010;2022-07-23T12:43:37;28.20;52.90
5274;DHT22;56254;50.956;7.010;2022-07-23T12:46:17;28.40;51.90
5274;DHT22;56254;50.956;7.010;2022-07-23T12:51:30;28.50;53.10
5274;DHT22;56254;50.956;7.010;2022-07-23T12:54:08;28.60;52.80
5274;DHT22;56254;50.956;7.010;2022-07-23T12:56:37;28.80;52.80
5274;DHT22;56254;50.956;7.010;2022-07-23T13:01:31;28.70;51.60
5274;DHT22;56254;50.956;7.010;2022-07-23T13:04:17;28.70;51.90
5274;DHT22;56254;50.956;7.010;2022-07-23T13:06:54;28.70;51.70
5274;DHT22;56254;50.956;7.010;2022-07-23T13:09:25;28.70;51.80
5274;DHT22;56254;50.956;7.010;2022-07-23T13:11:53;28.70;52.50
5274;DHT22;56254;50.956;7.010;2022-07-23T13:14:21;28.90;51.70
5274;DHT22;56254;50.956;7.010;2022-07-23T13:16:47;29.00;50.70
5274;DHT22;56254;50.956;7.010;2022-07-23T13:19:14;28.90;51.70
5274;DHT22;56254;50.956;7.010;2022-07-23T13:21:41;28.70;51.90
5274;DHT22;56254;50.956;7.010;2022-07-23T13:24:13;28.60;52.00
5274;DHT22;56254;50.956;7.010;2022-07-23T13:26:40;28.70;51.40
5274;DHT22;56254;50.956;7.010;2022-07-23T13:29:06;28.40;51.70
5274;DHT22;56254;50.956;7.010;2022-07-23T13:31:33;28.40;51.50
5274;DHT22;56254;50.956;7.010;2022-07-23T13:33:59;28.70;51.50
5274;DHT22;56254;50.956;7.010;2022-07-23T13:36:25;28.60;51.10
5274;DHT22;56254;50.956;7.010;2022-07-23T13:38:51;28.90;51.20
5274;DHT22;56254;50.956;7.010;2022-07-23T13:41:18;29.00;50.50
5274;DHT22;56254;50.956;7.010;2022-07-23T13:43:44;29.00;51.30
5274;DHT22;56254;50.956;7.010;2022-07-23T13:46:09;28.90;50.70
5274;DHT22;56254;50.956;7.010;2022-07-23T13:48:35;28.90;51.30
5274;DHT22;56254;50.956;7.010;2022-07-23T13:51:01;28.80;51.00
5274;DHT22;56254;50.956;7.010;2022-07-23T13:53:27;29.00;51.00
5274;DHT22;56254;50.956;7.010;2022-07-23T13:55:53;29.10;50.20
5274;DHT22;56254;50.956;7.010;2022-07-23T13:58:20;28.80;51.10
5274;DHT22;56254;50.956;7.010;2022-07-23T14:00:51;28.90;50.50
5274;DHT22;56254;50.956;7.010;2022-07-23T14:03:18;28.90;49.70
5274;DHT22;56254;50.956;7.010;2022-07-23T14:05:44;28.90;49.80
5274;DHT22;56254;50.956;7.010;2022-07-23T14:08:10;29.20;49.60
5274;DHT22;56254;50.956;7.010;2022-07-23T14:10:36;29.00;49.50
5274;DHT22;56254;50.956;7.010;2022-07-23T14:13:02;28.80;50.10
5274;DHT22;56254;50.956;7.010;2022-07-23T14:15:34;28.70;51.00
5274;DHT22;56254;50.956;7.010;2022-07-23T14:18:00;28.70;50.20
5274;DHT22;56254;50.956;7.010;2022-07-23T14:20:26;29.10;50.60
5274;DHT22;56254;50.956;7.010;2022-07-23T14:22:51;28.90;50.10
5274;DHT22;56254;50.956;7.010;2022-07-23T14:25:17;29.00;50.10
5274;DHT22;56254;50.956;7.010;2022-07-23T14:27:44;29.00;50.70
5274;DHT22;56254;50.956;7.010;2022-07-23T14:30:10;29.00;51.50
5274;DHT22;56254;50.956;7.010;2022-07-23T14:32:36;29.00;50.80
5274;DHT22;56254;50.956;7.010;2022-07-23T14:35:03;29.20;49.70
5274;DHT22;56254;50.956;7.010;2022-07-23T14:37:29;29.10;49.00
5274;DHT22;56254;50.956;7.010;2022-07-23T14:39:54;29.20;48.20
5274;DHT22;56254;50.956;7.010;2022-07-23T14:42:20;29.20;48.00
5274;DHT22;56254;50.956;7.010;2022-07-23T14:44:46;29.00;48.80
5274;DHT22;56254;50.956;7.010;2022-07-23T14:47:12;28.70;49.50
5274;DHT22;56254;50.956;7.010;2022-07-23T14:49:37;28.90;50.00
5274;DHT22;56254;50.956;7.010;2022-07-23T14:52:05;29.10;48.90
5274;DHT22;56254;50.956;7.010;2022-07-23T14:54:30;29.10;48.90
5274;DHT22;56254;50.956;7.010;2022-07-23T14:56:58;29.20;49.00
5274;DHT22;56254;50.956;7.010;2022-07-23T14:59:25;29.20;47.80
5274;DHT22;56254;50.956;7.010;2022-07-23T15:01:51;29.20;48.00
5274;DHT22;56254;50.956;7.010;2022-07-23T15:04:17;29.10;47.80
5274;DHT22;56254;50.956;7.010;2022-07-23T15:06:43;29.10;48.20
5274;DHT22;56254;50.956;7.010;2022-07-23T15:09:09;29.20;48.10
5274;DHT22;56254;50.956;7.010;2022-07-23T15:11:34;29.20;47.80
5274;DHT22;56254;50.956;7.010;2022-07-23T15:14:02;29.20;48.10
5274;DHT22;56254;50.956;7.010;2022-07-23T15:16:28;29.50;47.20
5274;DHT22;56254;50.956;7.010;2022-07-23T15:18:54;29.50;47.20
5274;DHT22;56254;50.956;7.010;2022-07-23T15:21:20;29.40;48.00
5274;DHT22;56254;50.956;7.010;2022-07-23T15:23:46;29.30;48.40
5274;DHT22;56254;50.956;7.010;2022-07-23T15:26:12;29.30;48.80
5274;DHT22;56254;50.956;7.010;2022-07-23T15:28:40;29.30;48.70
5274;DHT22;56254;50.956;7.010;2022-07-23T15:31:06;29.30;48.50
5274;DHT22;56254;50.956;7.010;2022-07-23T15:33:31;29.20;47.10
5274;DHT22;56254;50.956;7.010;2022-07-23T15:35:57;29.20;47.70
5274;DHT22;56254;50.956;7.010;2022-07-23T15:38:25;28.80;48.20
5274;DHT22;56254;50.956;7.010;2022-07-23T15:40:52;28.70;49.00
5274;DHT22;56254;50.956;7.010;2022-07-23T15:43:18;28.60;50.10
5274;DHT22;56254;50.956;7.010;2022-07-23T15:45:44;28.70;48.90
5274;DHT22;56254;50.956;7.010;2022-07-23T15:48:10;28.60;49.00
5274;DHT22;56254;50.956;7.010;2022-07-23T15:50:36;28.60;49.00
5274;DHT22;56254;50.956;7.010;2022-07-23T15:53:02;28.80;48.70
5274;DHT22;56254;50.956;7.010;2022-07-23T15:55:28;28.90;49.20
5274;DHT22;56254;50.956;7.010;2022-07-23T15:57:55;28.80;48.70
5274;DHT22;56254;50.956;7.010;2022-07-23T16:00:21;28.90;48.50
5274;DHT22;56254;50.956;7.010;2022-07-23T16:02:46;28.90;48.70
5274;DHT22;56254;50.956;7.010;2022-07-23T16:05:12;28.90;47.80
5274;DHT22;56254;50.956;7.010;2022-07-23T16:07:56;29.00;47.90
5274;DHT22;56254;50.956;7.010;2022-07-23T16:10:22;29.20;46.70
5274;DHT22;56254;50.956;7.010;2022-07-23T16:12:54;29.00;48.20
5274;DHT22;56254;50.956;7.010;2022-07-23T16:15:20;29.20;47.10
5274;DHT22;56254;50.956;7.010;2022-07-23T16:17:46;29.20;47.20
5274;DHT22;56254;50.956;7.010;2022-07-23T16:20:12;29.10;47.10
5274;DHT22;56254;50.956;7.010;2022-07-23T16:22:38;29.10;48.90
5274;DHT22;56254;50.956;7.010;2022-07-23T16:25:10;29.10;48.20
5274;DHT22;56254;50.956;7.010;2022-07-23T16:27:40;29.00;48.40